Time;durP1;ratioP1;P1;durP2;ratioP2;P2;SDS_P1;SDS_P2;PMS_P1;PMS_P2;Temp;Humidity;BMP_temperature;BMP_pressure;BME280_temperature;BME280_humidity;BME280_pressure;Samples;Min_cycle;Max_cycle;Signal;HPM_P1;HPM_P2
2023/06/26 00:00:03;;;;;;;9.30;5.20;;;;;;;;;;5002144;28;20058;-77
2023/06/26 00:02:32;;;;;;;11.10;5.97;;;;;;;;;;5019233;28;20068;-77
2023/06/26 00:05:04;;;;;;;11.65;6.20;;;;;;;;;;4976732;28;20057;-72
2023/06/26 00:07:30;;;;;;;9.45;5.15;;;;;;;;;;5053276;28;20065;-69
2023/06/26 00:09:58;;;;;;;10.65;5.97;;;;;;;;;;5050993;28;20061;-71
2023/06/26 00:12:25;;;;;;;;;;;;;;;;;;5051282;28;20139;-74
2023/06/26 00:14:54;;;;;;;28.77;17.98;;;;;;;;;;4934092;28;19934;-74
2023/06/26 00:17:21;;;;;;;25.98;12.85;;;;;;;;;;4904176;29;20079;-74
2023/06/26 00:19:48;;;;;;;21.05;13.00;;;;;;;;;;4906588;29;20118;-74
2023/06/26 00:22:15;;;;;;;13.52;8.10;;;;;;;;;;4918105;28;20118;-72
2023/06/26 00:24:41;;;;;;;10.50;6.03;;;;;;;;;;5035527;28;20056;-71
2023/06/26 00:27:08;;;;;;;10.40;6.07;;;;;;;;;;5024257;28;20075;-73
2023/06/26 00:29:35;;;;;;;12.13;6.30;;;;;;;;;;5024199;28;20061;-70
2023/06/26 00:32:03;;;;;;;12.20;5.75;;;;;;;;;;5032710;28;20057;-76
2023/06/26 00:34:29;;;;;;;12.02;6.47;;;;;;;;;;5038094;28;20064;-74
2023/06/26 00:36:55;;;;;;;13.27;6.65;;;;;;;;;;5030055;28;20049;-72
2023/06/26 00:39:25;;;;;;;12.75;5.70;;;;;;;;;;5025165;28;20143;-77
2023/06/26 00:41:53;;;;;;;9.55;4.93;;;;;;;;;;5026285;28;20060;-68
2023/06/26 00:44:20;;;;;;;11.43;5.97;;;;;;;;;;5034317;28;20060;-72
2023/06/26 00:46:46;;;;;;;11.48;6.35;;;;;;;;;;5037829;28;20081;-73
2023/06/26 00:49:14;;;;;;;13.25;6.63;;;;;;;;;;5039926;28;20084;-75
2023/06/26 00:51:41;;;;;;;10.73;6.35;;;;;;;;;;5029668;28;20085;-70
2023/06/26 00:54:07;;;;;;;10.77;6.32;;;;;;;;;;5034601;28;20122;-71
2023/06/26 00:56:35;;;;;;;12.65;6.40;;;;;;;;;;5039519;28;20194;-73
2023/06/26 00:59:01;;;;;;;15.48;6.28;;;;;;;;;;5036560;28;20139;-74
2023/06/26 01:01:28;;;;;;;13.10;6.50;;;;;;;;;;5042656;28;20061;-71
2023/06/26 01:03:56;;;;;;;10.23;6.03;;;;;;;;;;5010146;28;20048;-74
2023/06/26 01:06:24;;;;;;;14.65;6.78;;;;;;;;;;5046655;28;20148;-72
2023/06/26 01:08:52;;;;;;;12.60;6.47;;;;;;;;;;5051769;28;20131;-71
2023/06/26 01:11:19;;;;;;;12.40;5.82;;;;;;;;;;5024742;28;20057;-78
2023/06/26 01:13:46;;;;;;;11.07;5.95;;;;;;;;;;5023571;28;20122;-76
2023/06/26 01:16:13;;;;;;;16.48;6.90;;;;;;;;;;5018231;28;20061;-76
2023/06/26 01:18:42;;;;;;;11.25;6.05;;;;;;;;;;5023146;28;20065;-74
2023/06/26 01:21:10;;;;;;;14.77;6.40;;;;;;;;;;5048962;28;20215;-70
2023/06/26 01:23:39;;;;;;;10.43;6.00;;;;;;;;;;5015741;28;20052;-74
2023/06/26 01:26:16;;;;;;;10.27;5.80;;;;;;;;;;5020351;28;20107;-70
2023/06/26 01:28:43;;;;;;;10.77;5.70;;;;;;;;;;5040606;28;20044;-70
2023/06/26 01:31:11;;;;;;;11.17;7.00;;;;;;;;;;5041096;28;20052;-73
2023/06/26 01:33:37;;;;;;;11.20;5.90;;;;;;;;;;5053411;28;20173;-72
2023/06/26 01:36:04;;;;;;;8.90;4.05;;;;;;;;;;5033468;28;20049;-75
2023/06/26 01:38:31;;;;;;;7.60;4.13;;;;;;;;;;5041404;28;20056;-74
2023/06/26 01:40:57;;;;;;;7.05;4.47;;;;;;;;;;5049942;28;20052;-71
2023/06/26 01:43:30;;;;;;;13.82;4.80;;;;;;;;;;5059248;28;20052;-74
2023/06/26 01:45:59;;;;;;;10.02;3.97;;;;;;;;;;5035801;28;20130;-71
2023/06/26 01:48:35;;;;;;;8.05;3.65;;;;;;;;;;5022682;28;20084;-75
2023/06/26 01:51:03;;;;;;;6.63;3.45;;;;;;;;;;5034996;28;20052;-72
2023/06/26 01:53:33;;;;;;;7.82;3.97;;;;;;;;;;5058233;28;20061;-73
2023/06/26 01:56:01;;;;;;;7.32;3.88;;;;;;;;;;5026201;28;20080;-73
2023/06/26 01:58:29;;;;;;;7.43;3.65;;;;;;;;;;5043339;28;20045;-76
2023/06/26 02:00:56;;;;;;;6.75;3.45;;;;;;;;;;5032100;28;20044;-70
2023/06/26 02:03:24;;;;;;;7.43;3.88;;;;;;;;;;5037031;28;20049;-71
2023/06/26 02:05:50;;;;;;;7.75;3.40;;;;;;;;;;5022152;28;20106;-76
2023/06/26 02:08:17;;;;;;;6.38;3.22;;;;;;;;;;5040217;28;20061;-75
2023/06/26 02:10:46;;;;;;;6.45;3.13;;;;;;;;;;5032272;28;20071;-72
2023/06/26 02:13:12;;;;;;;8.95;3.35;;;;;;;;;;5038045;28;20048;-74
2023/06/26 02:15:41;;;;;;;8.55;3.38;;;;;;;;;;5017597;28;20050;-73
2023/06/26 02:18:08;;;;;;;7.32;3.00;;;;;;;;;;5024647;28;20076;-71
2023/06/26 02:20:34;;;;;;;6.45;3.20;;;;;;;;;;5049666;28;20066;-67
2023/06/26 02:23:01;;;;;;;7.22;3.28;;;;;;;;;;5030200;28;20126;-73
2023/06/26 02:25:27;;;;;;;6.80;2.95;;;;;;;;;;5031524;28;20118;-73
2023/06/26 02:27:54;;;;;;;5.50;2.72;;;;;;;;;;5038335;28;20057;-73
2023/06/26 02:30:21;;;;;;;6.32;2.92;;;;;;;;;;5036100;28;20069;-69
2023/06/26 02:32:49;;;;;;;5.90;2.70;;;;;;;;;;5009111;28;20053;-68
2023/06/26 02:35:15;;;;;;;7.90;2.78;;;;;;;;;;5004347;28;20072;-73
2023/06/26 02:37:42;;;;;;;7.80;2.97;;;;;;;;;;4997297;28;20144;-74
2023/06/26 02:40:10;;;;;;;8.07;2.72;;;;;;;;;;5011147;28;20058;-69
2023/06/26 02:42:36;;;;;;;9.30;3.42;;;;;;;;;;5015649;28;20087;-70
2023/06/26 02:45:03;;;;;;;7.30;2.70;;;;;;;;;;4952824;28;20057;-69
2023/06/26 02:47:29;;;;;;;10.70;2.90;;;;;;;;;;4996171;28;20071;-77
2023/06/26 02:49:57;;;;;;;7.22;2.80;;;;;;;;;;5019496;28;20073;-71
2023/06/26 02:52:24;;;;;;;5.60;2.15;;;;;;;;;;4996646;28;20061;-66
2023/06/26 02:54:51;;;;;;;6.15;2.58;;;;;;;;;;4996690;28;20059;-68
2023/06/26 02:57:17;;;;;;;5.00;2.10;;;;;;;;;;5027736;28;20068;-73
2023/06/26 02:59:44;;;;;;;7.80;2.38;;;;;;;;;;5015639;28;20057;-71
2023/06/26 03:02:10;;;;;;;9.10;3.20;;;;;;;;;;5042203;28;21535;-71
2023/06/26 03:04:37;;;;;;;7.65;2.55;;;;;;;;;;5033131;28;20060;-73
2023/06/26 03:07:05;;;;;;;7.15;2.88;;;;;;;;;;5030941;28;20065;-70
2023/06/26 03:09:32;;;;;;;;;;;;;;;;;;5024905;28;20061;-71
2023/06/26 03:11:58;;;;;;;7.18;2.60;;;;;;;;;;5032235;28;19990;-68
2023/06/26 03:14:26;;;;;;;9.38;2.60;;;;;;;;;;5002863;28;20049;-74
2023/06/26 03:16:56;;;;;;;8.45;2.60;;;;;;;;;;5020529;28;20057;-74
2023/06/26 03:19:23;;;;;;;7.50;2.47;;;;;;;;;;5015989;28;20068;-78
2023/06/26 03:21:49;;;;;;;7.20;2.55;;;;;;;;;;5032527;28;20076;-75
2023/06/26 03:24:17;;;;;;;9.93;2.80;;;;;;;;;;5006776;28;20130;-72
2023/06/26 03:26:46;;;;;;;7.28;2.40;;;;;;;;;;5014259;28;20103;-69
2023/06/26 03:29:12;;;;;;;;;;;;;;;;;;5016516;28;20054;-78
2023/06/26 03:31:39;;;;;;;10.30;2.60;;;;;;;;;;5055542;28;19932;-68
2023/06/26 03:34:05;;;;;;;6.60;2.55;;;;;;;;;;5032749;28;20056;-73
2023/06/26 03:36:32;;;;;;;16.73;3.20;;;;;;;;;;5036627;28;20060;-74
2023/06/26 03:39:00;;;;;;;7.25;2.53;;;;;;;;;;5028541;28;20064;-70
2023/06/26 03:41:28;;;;;;;10.75;3.13;;;;;;;;;;5036536;28;20053;-74
2023/06/26 03:43:56;;;;;;;11.40;2.88;;;;;;;;;;5036287;28;20053;-69
2023/06/26 03:46:22;;;;;;;9.60;3.03;;;;;;;;;;5027294;28;20118;-73
2023/06/26 03:48:52;;;;;;;10.93;3.20;;;;;;;;;;5029507;28;20112;-71
2023/06/26 03:51:18;;;;;;;10.10;2.50;;;;;;;;;;5041167;28;20049;-71
2023/06/26 03:53:45;;;;;;;5.35;2.15;;;;;;;;;;5040353;28;20123;-72
2023/06/26 03:56:12;;;;;;;7.47;2.08;;;;;;;;;;5015683;28;20057;-71
2023/06/26 03:58:40;;;;;;;14.43;2.78;;;;;;;;;;5034455;28;20064;-71
2023/06/26 04:01:06;;;;;;;8.18;2.42;;;;;;;;;;5036856;28;20072;-73
2023/06/26 04:03:33;;;;;;;7.70;2.20;;;;;;;;;;5062260;28;20053;-72
2023/06/26 04:06:00;;;;;;;15.95;3.45;;;;;;;;;;4977452;28;20375;-68
2023/06/26 04:08:27;;;;;;;8.18;2.42;;;;;;;;;;5025356;28;20052;-73
2023/06/26 04:10:55;;;;;;;12.02;3.05;;;;;;;;;;5031353;28;20122;-71
2023/06/26 04:13:21;;;;;;;10.68;3.00;;;;;;;;;;5054390;28;20083;-74
2023/06/26 04:15:49;;;;;;;12.77;3.35;;;;;;;;;;5032732;28;20151;-68
2023/06/26 04:18:16;;;;;;;6.63;2.15;;;;;;;;;;5028811;28;20044;-71
2023/06/26 04:21:02;;;;;;;8.25;2.85;;;;;;;;;;5051519;28;20057;-76
2023/06/26 04:23:30;;;;;;;9.52;2.45;;;;;;;;;;5040275;28;20065;-74
2023/06/26 04:25:58;;;;;;;8.70;2.58;;;;;;;;;;5024099;28;20060;-69
2023/06/26 04:28:27;;;;;;;13.05;2.88;;;;;;;;;;5022232;28;20072;-73
2023/06/26 04:30:54;;;;;;;12.65;3.05;;;;;;;;;;5020599;28;20044;-66
2023/06/26 04:33:21;;;;;;;10.23;2.28;;;;;;;;;;5022693;28;20065;-72
2023/06/26 04:35:49;;;;;;;7.60;2.72;;;;;;;;;;5035724;28;20052;-76
2023/06/26 04:38:19;;;;;;;9.40;3.28;;;;;;;;;;5042781;28;20044;-71
2023/06/26 04:40:54;;;;;;;10.32;2.95;;;;;;;;;;5052885;28;20067;-71
2023/06/26 04:43:21;;;;;;;8.77;2.65;;;;;;;;;;5045051;28;20083;-73
2023/06/26 04:45:47;;;;;;;6.63;2.53;;;;;;;;;;5056394;28;20082;-71
2023/06/26 04:48:14;;;;;;;8.60;2.70;;;;;;;;;;5055773;28;20056;-69
2023/06/26 04:50:41;;;;;;;13.57;3.75;;;;;;;;;;5058111;28;20100;-65
2023/06/26 04:53:08;;;;;;;12.00;3.50;;;;;;;;;;5031328;28;20060;-69
2023/06/26 04:55:36;;;;;;;12.98;5.25;;;;;;;;;;5015124;28;20053;-74
2023/06/26 04:58:05;;;;;;;13.32;3.50;;;;;;;;;;5055755;28;20075;-71
2023/06/26 05:00:35;;;;;;;11.23;4.43;;;;;;;;;;5058252;28;20052;-66
2023/06/26 05:03:02;;;;;;;9.15;2.50;;;;;;;;;;5031519;28;20289;-70
2023/06/26 05:05:28;;;;;;;7.47;2.40;;;;;;;;;;5055649;28;20106;-66
2023/06/26 05:07:55;;;;;;;16.17;3.40;;;;;;;;;;5036734;28;20156;-71
2023/06/26 05:10:22;;;;;;;10.60;3.05;;;;;;;;;;5040904;28;20064;-69
2023/06/26 05:12:50;;;;;;;12.48;2.90;;;;;;;;;;5033041;28;20052;-67
2023/06/26 05:15:18;;;;;;;7.47;2.40;;;;;;;;;;5055553;28;20080;-72
2023/06/26 05:17:44;;;;;;;9.95;2.60;;;;;;;;;;5055443;28;20048;-72
2023/06/26 05:20:11;;;;;;;9.75;2.58;;;;;;;;;;5058525;28;20145;-70
2023/06/26 05:22:39;;;;;;;14.27;3.20;;;;;;;;;;5055176;28;20098;-72
2023/06/26 05:25:08;;;;;;;13.55;3.00;;;;;;;;;;5053509;28;20276;-72
2023/06/26 05:27:35;;;;;;;9.40;2.72;;;;;;;;;;5055542;28;20088;-71
2023/06/26 05:30:02;;;;;;;9.55;3.95;;;;;;;;;;5057135;28;20052;-68
2023/06/26 05:32:31;;;;;;;8.10;2.47;;;;;;;;;;5058816;28;20076;-70
2023/06/26 05:34:58;;;;;;;10.75;2.38;;;;;;;;;;5008577;28;20088;-70
2023/06/26 05:37:26;;;;;;;7.82;2.45;;;;;;;;;;5029575;28;20056;-77
2023/06/26 05:39:53;;;;;;;10.40;2.67;;;;;;;;;;5029445;28;20063;-74
2023/06/26 05:42:20;;;;;;;10.80;2.63;;;;;;;;;;5031208;28;20131;-69
2023/06/26 05:44:46;;;;;;;5.95;2.40;;;;;;;;;;5023790;28;20044;-72
2023/06/26 05:47:13;;;;;;;12.52;2.85;;;;;;;;;;5046498;28;20053;-69
2023/06/26 05:49:41;;;;;;;10.30;2.67;;;;;;;;;;5035384;28;20140;-73
2023/06/26 05:52:08;;;;;;;7.82;2.33;;;;;;;;;;5033084;28;20061;-70
2023/06/26 05:54:35;;;;;;;9.27;2.35;;;;;;;;;;4959852;28;20073;-72
2023/06/26 05:57:02;;;;;;;8.70;2.42;;;;;;;;;;4938089;28;20112;-71
2023/06/26 05:59:31;;;;;;;7.50;2.42;;;;;;;;;;5005528;28;20119;-68
2023/06/26 06:01:58;;;;;;;8.00;2.67;;;;;;;;;;5053934;28;20103;-69
2023/06/26 06:04:24;;;;;;;9.98;2.30;;;;;;;;;;5036014;28;20053;-75
2023/06/26 06:06:53;;;;;;;6.93;2.20;;;;;;;;;;5027371;28;20057;-68
2023/06/26 06:09:19;;;;;;;9.15;2.47;;;;;;;;;;5022542;28;20075;-70
2023/06/26 06:11:46;;;;;;;5.53;1.98;;;;;;;;;;5038926;28;20061;-66
2023/06/26 06:14:12;;;;;;;5.68;2.20;;;;;;;;;;5036597;28;20061;-68
2023/06/26 06:16:39;;;;;;;5.93;2.30;;;;;;;;;;5020740;28;20053;-70
2023/06/26 06:19:07;;;;;;;5.93;1.63;;;;;;;;;;5029018;28;20106;-73
2023/06/26 06:21:34;;;;;;;4.82;1.85;;;;;;;;;;5040661;28;20130;-74
2023/06/26 06:24:03;;;;;;;4.57;1.80;;;;;;;;;;5037384;28;20053;-73
2023/06/26 06:26:29;;;;;;;6.47;1.77;;;;;;;;;;5005859;28;20056;-72
2023/06/26 06:28:56;;;;;;;6.90;1.98;;;;;;;;;;5010740;28;20092;-71
2023/06/26 06:31:22;;;;;;;4.55;2.00;;;;;;;;;;5020709;28;20053;-72
2023/06/26 06:33:49;;;;;;;7.13;2.33;;;;;;;;;;5016471;28;20041;-74
2023/06/26 06:36:15;;;;;;;7.47;2.10;;;;;;;;;;4966784;28;20053;-69
2023/06/26 06:38:44;;;;;;;7.78;2.22;;;;;;;;;;5024723;28;20316;-68
2023/06/26 06:41:12;;;;;;;5.82;2.10;;;;;;;;;;5031104;28;20055;-68
2023/06/26 06:43:39;;;;;;;7.43;1.67;;;;;;;;;;5039125;28;20056;-70
2023/06/26 06:46:05;;;;;;;5.07;1.77;;;;;;;;;;5032015;28;20103;-71
2023/06/26 06:48:32;;;;;;;7.43;1.70;;;;;;;;;;5036912;28;20057;-71
2023/06/26 06:51:00;;;;;;;5.43;1.63;;;;;;;;;;5043549;28;20091;-72
2023/06/26 06:53:26;;;;;;;5.32;1.67;;;;;;;;;;5052578;28;20099;-71
2023/06/26 06:55:53;;;;;;;3.70;1.50;;;;;;;;;;5032984;28;20071;-68
2023/06/26 06:58:27;;;;;;;5.82;2.03;;;;;;;;;;5016051;28;20052;-69
2023/06/26 07:00:53;;;;;;;3.95;1.33;;;;;;;;;;5029406;28;20147;-73
2023/06/26 07:03:21;;;;;;;5.57;1.75;;;;;;;;;;5033332;28;20053;-72
2023/06/26 07:05:47;;;;;;;3.22;1.42;;;;;;;;;;5007837;28;20053;-69
2023/06/26 07:08:14;;;;;;;6.15;1.80;;;;;;;;;;5034790;28;20056;-70
2023/06/26 07:10:43;;;;;;;4.90;1.63;;;;;;;;;;5034122;28;20063;-71
2023/06/26 07:13:09;;;;;;;6.15;2.60;;;;;;;;;;5028370;28;20183;-68
2023/06/26 07:15:37;;;;;;;6.72;2.00;;;;;;;;;;5023096;28;20060;-69
2023/06/26 07:18:04;;;;;;;5.30;1.95;;;;;;;;;;5030492;28;20117;-68
2023/06/26 07:20:30;;;;;;;4.20;1.77;;;;;;;;;;5036618;28;20056;-67
2023/06/26 07:22:57;;;;;;;9.13;1.95;;;;;;;;;;5019617;28;20075;-71
2023/06/26 07:25:23;;;;;;;4.72;2.00;;;;;;;;;;5010559;28;20057;-67
2023/06/26 07:27:50;;;;;;;5.70;1.80;;;;;;;;;;5019822;28;20156;-70
2023/06/26 07:30:17;;;;;;;6.20;1.90;;;;;;;;;;5029513;28;20195;-67
2023/06/26 07:32:46;;;;;;;5.63;2.20;;;;;;;;;;5024256;28;20037;-69
2023/06/26 07:35:12;;;;;;;6.85;1.90;;;;;;;;;;5009284;28;20166;-67
2023/06/26 07:37:40;;;;;;;7.38;2.92;;;;;;;;;;5037516;28;20130;-70
2023/06/26 07:40:10;;;;;;;5.07;1.73;;;;;;;;;;5024322;28;20057;-70
2023/06/26 07:42:36;;;;;;;5.90;2.03;;;;;;;;;;5056988;28;20049;-69
2023/06/26 07:45:10;;;;;;;6.78;2.95;;;;;;;;;;4997712;28;20061;-70
2023/06/26 07:47:38;;;;;;;4.47;2.08;;;;;;;;;;5019821;28;20165;-72
2023/06/26 07:50:09;;;;;;;5.65;2.00;;;;;;;;;;5015607;28;20084;-75
2023/06/26 07:52:36;;;;;;;4.57;2.20;;;;;;;;;;5039320;28;20080;-72
2023/06/26 07:55:10;;;;;;;5.78;1.77;;;;;;;;;;4993249;28;20044;-70
2023/06/26 07:57:36;;;;;;;6.18;2.40;;;;;;;;;;4982445;28;20050;-72
2023/06/26 08:00:09;;;;;;;8.73;2.00;;;;;;;;;;5009442;28;20203;-70
2023/06/26 08:02:36;;;;;;;7.00;2.05;;;;;;;;;;5019740;28;20053;-71
2023/06/26 08:05:05;;;;;;;5.45;1.80;;;;;;;;;;4983735;28;20607;-71
2023/06/26 08:07:35;;;;;;;4.68;1.95;;;;;;;;;;5036397;28;20067;-70
2023/06/26 08:10:02;;;;;;;5.70;1.95;;;;;;;;;;5021221;28;20200;-69
2023/06/26 08:12:36;;;;;;;5.45;2.40;;;;;;;;;;5020995;28;20159;-71
2023/06/26 08:15:04;;;;;;;5.50;2.13;;;;;;;;;;5006122;28;20049;-70
2023/06/26 08:17:31;;;;;;;6.55;2.50;;;;;;;;;;5058053;28;20143;-69
2023/06/26 08:20:00;;;;;;;5.85;1.83;;;;;;;;;;5038673;28;20059;-67
2023/06/26 08:22:27;;;;;;;8.25;2.22;;;;;;;;;;5041195;28;20144;-68
2023/06/26 08:24:56;;;;;;;4.22;2.13;;;;;;;;;;5039380;28;20049;-69
2023/06/26 08:27:23;;;;;;;10.23;2.47;;;;;;;;;;5054894;28;20045;-68
2023/06/26 08:29:49;;;;;;;6.90;2.08;;;;;;;;;;5051268;28;20053;-69
2023/06/26 08:32:16;;;;;;;8.40;1.92;;;;;;;;;;5053323;28;20149;-69
2023/06/26 08:34:42;;;;;;;5.80;2.65;;;;;;;;;;5035868;28;20052;-68
2023/06/26 08:37:09;;;;;;;5.85;2.05;;;;;;;;;;5030253;28;20056;-69
2023/06/26 08:39:36;;;;;;;6.13;2.17;;;;;;;;;;5036977;28;20067;-69
2023/06/26 08:42:04;;;;;;;7.03;2.15;;;;;;;;;;5039097;28;20071;-70
2023/06/26 08:44:30;;;;;;;;;;;;;;;;;;5041463;28;20063;-68
2023/06/26 08:46:59;;;;;;;5.93;2.05;;;;;;;;;;5007722;28;19971;-69
2023/06/26 08:49:30;;;;;;;5.13;1.75;;;;;;;;;;5019554;28;20052;-68
2023/06/26 08:51:59;;;;;;;4.38;1.80;;;;;;;;;;5038081;28;20069;-69
2023/06/26 08:54:29;;;;;;;4.82;1.73;;;;;;;;;;5010165;28;20063;-68
2023/06/26 08:56:58;;;;;;;3.50;1.60;;;;;;;;;;5017999;28;20053;-67
2023/06/26 08:59:26;;;;;;;5.20;1.70;;;;;;;;;;5059658;28;20060;-69
2023/06/26 09:01:53;;;;;;;;;;;;;;;;;;5035316;28;20144;-71
2023/06/26 09:04:19;;;;;;;5.40;1.20;;;;;;;;;;5029015;28;19998;-70
2023/06/26 09:06:51;;;;;;;3.90;1.45;;;;;;;;;;5003171;28;20077;-69
2023/06/26 09:09:18;;;;;;;2.65;1.17;;;;;;;;;;5015261;28;20056;-69
2023/06/26 09:11:46;;;;;;;2.58;1.30;;;;;;;;;;5008332;28;20058;-69
2023/06/26 09:14:14;;;;;;;4.65;1.02;;;;;;;;;;5003015;28;20057;-73
2023/06/26 09:16:43;;;;;;;4.72;1.02;;;;;;;;;;4979392;28;20050;-69
2023/06/26 09:19:11;;;;;;;;;;;;;;;;;;5014432;28;20186;-72
2023/06/26 09:21:39;;;;;;;6.45;1.05;;;;;;;;;;5028198;28;19935;-72
2023/06/26 09:24:08;;;;;;;4.00;1.20;;;;;;;;;;5019876;28;20061;-71
2023/06/26 09:26:35;;;;;;;5.32;1.15;;;;;;;;;;4955376;28;20126;-71
2023/06/26 09:29:01;;;;;;;5.43;1.40;;;;;;;;;;5010344;28;20061;-73
2023/06/26 09:31:38;;;;;;;5.68;1.60;;;;;;;;;;5024011;28;20050;-70
2023/06/26 09:34:07;;;;;;;5.65;2.33;;;;;;;;;;5015679;28;20067;-70
2023/06/26 09:36:36;;;;;;;9.73;1.10;;;;;;;;;;4997182;28;20188;-74
2023/06/26 09:39:04;;;;;;;2.95;1.33;;;;;;;;;;5008262;28;20064;-71
2023/06/26 09:41:33;;;;;;;4.50;1.42;;;;;;;;;;5014795;28;20049;-72
2023/06/26 09:44:02;;;;;;;6.15;1.48;;;;;;;;;;5019921;28;20080;-69
2023/06/26 09:46:31;;;;;;;4.60;1.13;;;;;;;;;;4993192;28;20068;-70
2023/06/26 09:49:00;;;;;;;7.25;1.50;;;;;;;;;;5006799;28;20049;-73
2023/06/26 09:51:30;;;;;;;3.72;1.10;;;;;;;;;;5017790;28;20054;-71
2023/06/26 09:53:57;;;;;;;7.38;1.48;;;;;;;;;;5029371;28;20050;-69
2023/06/26 09:56:25;;;;;;;4.07;1.20;;;;;;;;;;5004055;28;20057;-67
2023/06/26 09:58:52;;;;;;;4.85;1.20;;;;;;;;;;5005412;28;20088;-67
2023/06/26 10:01:20;;;;;;;3.78;1.02;;;;;;;;;;5016937;28;20057;-69
2023/06/26 10:03:47;;;;;;;6.82;1.15;;;;;;;;;;5043405;28;20049;-72
2023/06/26 10:06:14;;;;;;;9.50;1.00;;;;;;;;;;5005443;28;20053;-70
2023/06/26 10:08:42;;;;;;;2.97;1.33;;;;;;;;;;5011546;28;20103;-68
2023/06/26 10:11:12;;;;;;;5.47;1.23;;;;;;;;;;5011687;28;20049;-72
2023/06/26 10:13:46;;;;;;;5.93;1.20;;;;;;;;;;5019548;28;20061;-67
2023/06/26 10:16:13;;;;;;;3.15;1.25;;;;;;;;;;5002600;28;20053;-66
2023/06/26 10:18:42;;;;;;;4.15;1.17;;;;;;;;;;5015581;28;20064;-72
2023/06/26 10:21:21;;;;;;;6.88;1.63;;;;;;;;;;5033385;28;20096;-67
2023/06/26 10:23:51;;;;;;;3.72;1.23;;;;;;;;;;5016277;28;20069;-70
2023/06/26 10:26:17;;;;;;;3.90;1.70;;;;;;;;;;4992119;28;20065;-69
2023/06/26 10:28:45;;;;;;;2.80;1.27;;;;;;;;;;5025572;28;20053;-73
2023/06/26 10:31:12;;;;;;;2.83;1.00;;;;;;;;;;5028046;28;20148;-63
2023/06/26 10:33:41;;;;;;;2.55;0.80;;;;;;;;;;5019043;28;20081;-66
2023/06/26 10:36:17;;;;;;;6.85;1.10;;;;;;;;;;5011077;28;20221;-68
2023/06/26 10:38:53;;;;;;;3.38;1.20;;;;;;;;;;5015564;28;20061;-68
2023/06/26 10:41:23;;;;;;;2.45;1.00;;;;;;;;;;5013000;28;20193;-71
2023/06/26 10:43:51;;;;;;;2.67;0.80;;;;;;;;;;5002721;28;20069;-70
2023/06/26 10:46:19;;;;;;;2.00;1.05;;;;;;;;;;4988086;28;20060;-69
2023/06/26 10:49:03;;;;;;;4.25;1.00;;;;;;;;;;5012282;28;20084;-70
2023/06/26 10:51:30;;;;;;;4.10;1.42;;;;;;;;;;5013693;28;20053;-70
2023/06/26 10:53:58;;;;;;;4.82;1.20;;;;;;;;;;5028416;28;20127;-67
2023/06/26 10:56:40;;;;;;;2.75;0.90;;;;;;;;;;4972032;28;20057;-69
2023/06/26 10:59:14;;;;;;;2.33;0.93;;;;;;;;;;5011448;28;20079;-67
2023/06/26 11:01:41;;;;;;;5.82;1.13;;;;;;;;;;5016576;28;20053;-69
2023/06/26 11:04:08;;;;;;;3.37;1.10;;;;;;;;;;5056895;28;20130;-67
2023/06/26 11:06:38;;;;;;;1.75;0.98;;;;;;;;;;5027079;28;20056;-67
2023/06/26 11:09:10;;;;;;;4.57;1.40;;;;;;;;;;5052225;28;20067;-69
2023/06/26 11:11:58;;;;;;;5.75;1.00;;;;;;;;;;5034564;28;20127;-66
2023/06/26 11:14:26;;;;;;;3.28;1.30;;;;;;;;;;5043915;28;20060;-72
2023/06/26 11:16:52;;;;;;;5.57;1.52;;;;;;;;;;5022098;28;20047;-69
2023/06/26 11:19:20;;;;;;;2.60;1.15;;;;;;;;;;5057154;28;20048;-68
2023/06/26 11:21:47;;;;;;;2.55;1.00;;;;;;;;;;5052918;28;20057;-69
2023/06/26 11:24:15;;;;;;;3.50;0.85;;;;;;;;;;5038337;28;20060;-69
2023/06/26 11:26:42;;;;;;;3.42;1.00;;;;;;;;;;5036672;28;20101;-69
2023/06/26 11:29:09;;;;;;;6.03;1.17;;;;;;;;;;5049546;28;20147;-69
2023/06/26 11:31:37;;;;;;;3.45;1.10;;;;;;;;;;5056868;28;20092;-69
2023/06/26 11:34:04;;;;;;;6.60;1.20;;;;;;;;;;5038763;28;20052;-69
2023/06/26 11:36:32;;;;;;;4.07;1.27;;;;;;;;;;5025964;28;20067;-69
2023/06/26 11:39:00;;;;;;;3.57;0.63;;;;;;;;;;5042735;28;20156;-70
2023/06/26 11:41:28;;;;;;;3.47;1.00;;;;;;;;;;5057161;28;20088;-68
2023/06/26 11:43:56;;;;;;;3.60;1.02;;;;;;;;;;5034889;28;20316;-68
2023/06/26 11:46:23;;;;;;;5.03;1.20;;;;;;;;;;5041601;28;20060;-69
2023/06/26 11:48:50;;;;;;;5.28;1.08;;;;;;;;;;5025358;28;20067;-68
2023/06/26 11:51:16;;;;;;;4.38;1.40;;;;;;;;;;5057541;28;20056;-71
2023/06/26 11:53:43;;;;;;;5.45;1.25;;;;;;;;;;5048158;28;20063;-70
2023/06/26 11:56:10;;;;;;;3.22;0.63;;;;;;;;;;5016169;28;20052;-67
2023/06/26 11:58:54;;;;;;;2.75;0.90;;;;;;;;;;5046959;28;20053;-69
2023/06/26 12:01:22;;;;;;;4.50;0.95;;;;;;;;;;5057124;28;20058;-69
2023/06/26 12:03:49;;;;;;;4.82;0.90;;;;;;;;;;5026780;28;20191;-67
2023/06/26 12:06:15;;;;;;;7.78;0.90;;;;;;;;;;5021161;28;20061;-68
2023/06/26 12:08:43;;;;;;;4.75;0.70;;;;;;;;;;5028233;28;20053;-68
2023/06/26 12:11:09;;;;;;;4.07;0.90;;;;;;;;;;5034696;28;20060;-65
2023/06/26 12:13:37;;;;;;;5.22;0.90;;;;;;;;;;5031851;28;20060;-69
2023/06/26 12:16:04;;;;;;;3.38;1.00;;;;;;;;;;4999208;28;20063;-71
2023/06/26 12:18:34;;;;;;;2.60;1.00;;;;;;;;;;5026682;28;20084;-68
2023/06/26 12:21:01;;;;;;;2.38;0.70;;;;;;;;;;5031203;28;20135;-70
2023/06/26 12:23:33;;;;;;;4.82;0.77;;;;;;;;;;5039165;28;20067;-70
2023/06/26 12:25:59;;;;;;;1.40;0.80;;;;;;;;;;5017658;28;20048;-68
2023/06/26 12:28:26;;;;;;;1.08;0.90;;;;;;;;;;5036536;28;20061;-70
2023/06/26 12:31:08;;;;;;;4.72;0.80;;;;;;;;;;5027208;28;20061;-67
2023/06/26 12:33:38;;;;;;;2.10;0.80;;;;;;;;;;5037353;28;20097;-67
2023/06/26 12:36:05;;;;;;;2.45;1.00;;;;;;;;;;5026690;28;20164;-69
2023/06/26 12:38:34;;;;;;;2.08;0.90;;;;;;;;;;5037371;28;20049;-67
2023/06/26 12:41:00;;;;;;;2.33;1.08;;;;;;;;;;5026081;28;20072;-70
2023/06/26 12:43:29;;;;;;;5.10;1.27;;;;;;;;;;5033657;28;20108;-66
2023/06/26 12:45:55;;;;;;;3.05;0.93;;;;;;;;;;5012900;28;20146;-70
2023/06/26 12:48:22;;;;;;;4.80;0.75;;;;;;;;;;5049615;28;20164;-68
2023/06/26 12:50:53;;;;;;;2.13;0.80;;;;;;;;;;5020846;28;20057;-69
2023/06/26 12:53:21;;;;;;;2.75;0.82;;;;;;;;;;5037127;28;20085;-67
2023/06/26 12:55:48;;;;;;;2.95;0.80;;;;;;;;;;5012419;28;20079;-67
2023/06/26 12:58:15;;;;;;;4.38;1.08;;;;;;;;;;5037579;28;20079;-68
2023/06/26 13:00:44;;;;;;;6.07;0.88;;;;;;;;;;5032776;28;20131;-69
2023/06/26 13:03:10;;;;;;;1.75;0.70;;;;;;;;;;5031366;28;20091;-70
2023/06/26 13:05:37;;;;;;;1.65;0.75;;;;;;;;;;5007567;28;20127;-68
2023/06/26 13:08:05;;;;;;;3.90;0.95;;;;;;;;;;5012246;28;20080;-67
2023/06/26 13:10:32;;;;;;;3.45;0.75;;;;;;;;;;5041038;28;20251;-71
2023/06/26 13:13:01;;;;;;;6.32;0.70;;;;;;;;;;5021252;28;20045;-68
2023/06/26 13:15:28;;;;;;;;;;;;;;;;;;5027134;28;20139;-68
2023/06/26 13:17:54;;;;;;;2.03;0.95;;;;;;;;;;5034156;28;19955;-70
2023/06/26 13:20:21;;;;;;;1.85;0.82;;;;;;;;;;5032582;28;20455;-68
2023/06/26 13:22:49;;;;;;;1.52;0.57;;;;;;;;;;5030466;28;20060;-70
2023/06/26 13:25:17;;;;;;;1.98;0.90;;;;;;;;;;5033675;28;20060;-67
2023/06/26 13:27:44;;;;;;;4.43;2.25;;;;;;;;;;5002611;28;20156;-68
2023/06/26 13:30:11;;;;;;;2.55;1.27;;;;;;;;;;5038865;28;20080;-67
2023/06/26 13:32:40;;;;;;;5.03;1.20;;;;;;;;;;5033405;28;20055;-67
2023/06/26 13:35:09;;;;;;;3.05;0.90;;;;;;;;;;5033079;28;20185;-67
2023/06/26 13:37:36;;;;;;;2.35;0.88;;;;;;;;;;4950697;28;20050;-65
2023/06/26 13:40:03;;;;;;;1.65;0.70;;;;;;;;;;5007315;28;20061;-68
2023/06/26 13:42:31;;;;;;;2.53;0.80;;;;;;;;;;5027592;28;20080;-63
2023/06/26 13:44:57;;;;;;;1.95;0.80;;;;;;;;;;5030734;28;20065;-67
2023/06/26 13:47:27;;;;;;;1.55;0.63;;;;;;;;;;5026526;28;20055;-68
2023/06/26 13:49:53;;;;;;;2.80;0.77;;;;;;;;;;5030020;28;20053;-68
2023/06/26 13:52:20;;;;;;;0.82;0.70;;;;;;;;;;5034424;28;20061;-65
2023/06/26 13:54:54;;;;;;;0.98;0.70;;;;;;;;;;5049489;28;20061;-69
2023/06/26 13:57:22;;;;;;;2.33;1.00;;;;;;;;;;5002774;28;20060;-67
2023/06/26 13:59:49;;;;;;;3.80;1.00;;;;;;;;;;5034640;28;20115;-67
2023/06/26 14:02:16;;;;;;;2.13;0.90;;;;;;;;;;5036895;28;20094;-67
2023/06/26 14:04:46;;;;;;;5.22;1.10;;;;;;;;;;5029613;28;20136;-66
2023/06/26 14:07:12;;;;;;;2.65;0.88;;;;;;;;;;4986320;28;20049;-67
2023/06/26 14:09:39;;;;;;;3.33;0.90;;;;;;;;;;5031950;28;20063;-68
2023/06/26 14:12:06;;;;;;;1.83;0.75;;;;;;;;;;5038575;28;20064;-67
2023/06/26 14:14:33;;;;;;;2.28;0.73;;;;;;;;;;5028757;28;20059;-66
2023/06/26 14:17:01;;;;;;;2.55;0.93;;;;;;;;;;5012564;28;20059;-69
2023/06/26 14:19:27;;;;;;;4.13;2.10;;;;;;;;;;5031825;28;20065;-68
2023/06/26 14:21:54;;;;;;;6.20;1.50;;;;;;;;;;5051109;28;20079;-68
2023/06/26 14:24:21;;;;;;;7.90;4.13;;;;;;;;;;5028433;28;20065;-68
2023/06/26 14:26:50;;;;;;;4.40;1.95;;;;;;;;;;5009005;28;20134;-66
2023/06/26 14:29:17;;;;;;;6.20;1.30;;;;;;;;;;5029194;28;20048;-65
2023/06/26 14:31:43;;;;;;;4.57;1.00;;;;;;;;;;5037309;28;20122;-67
2023/06/26 14:34:16;;;;;;;1.75;0.90;;;;;;;;;;5029799;28;20057;-70
2023/06/26 14:36:43;;;;;;;5.18;1.20;;;;;;;;;;5013569;28;20056;-65
2023/06/26 14:39:10;;;;;;;2.03;0.98;;;;;;;;;;5036128;28;20053;-67
2023/06/26 14:41:36;;;;;;;3.97;1.20;;;;;;;;;;5037336;28;20057;-66
2023/06/26 14:44:04;;;;;;;4.18;1.00;;;;;;;;;;5035826;28;20063;-68
2023/06/26 14:46:31;;;;;;;3.22;1.00;;;;;;;;;;5020735;28;20107;-67